aviador You're here:

CWHN Decoded Metar

JIMMY LAKE in SK, CANADA
Report Time2018-02-20 03:00:00
UTC Time2018-02-20 03:25:54
Flight Rules vfr VFR
Wind260° at 07 kt
W.Rank260° ranks 17
Current wind is above 260° avg. (5.6)
Visibility9999 m
Phenomena:N/A
Clouds:Few 032 Hf
Overcast 054 Hf
Overcast 090 Hf
Expected CloudBase > 2,400 ft AGL from Temp-Dew spread
Ceiling5,400 ft
Temp-12°C (ISA -23)
Dew Point-18°C (61% RH)
AAT-18.0°C
QNH1010 hPa
Density Alt-636 ft
Elevation2,087 ft
Report Wrong Elevation
Raw Report
METAR CWHN 200300Z AUTO 26007KT 9SM FEW032 OVC054 OVC090 M12/M18 A2982 RMK SLP158=

Extra information for CWHN:More info

Metar Taf Metar & Taf Last 4 Metars F.Rules Stats Wind Profile Meteogram Temp Stats Airport Information Weather charts Add Link Nearby VenuesMetar ALERT Operation Metar Decoded Social comments